Ana Sayfa
METAR-TAF:

METAR-TAF

Havaalanları :

Kolda, Senegal

Enlem: 12-53N, Boylam: 014-58W, yükseklik: 10 m

Güncel hava durumu gözlemi

Rapor saat 00:00 UTC de 33 dakika önce yapıldı.
Rüzgar güneybatıdan 4 kt
Sıcaklık 25°C
Nem 94%
Basınç 1011 hPa
Görüş mesafesi 10 km veya daha fazla
1000 ft yükseklikte parçalı bulutlu
2600 ft yükseklikte az bulutlu, Kümülonimbus.
gök gürültülü fırtına, yağmur

METAR: GOGK 290000Z 22004KT 9999 TSRA SCT010 FEW026CB 25/24 Q1011

Saat: 00:33 (00:33 UTC)


TAF: eksik

4.000'den fazla havaalanı için hava durumu gözlemleri ve tahminleri (METAR ve TAF raporları).

Kullanılabilir istasyonlar harita üzerinde sarı ve kırmızı noktalarla gösterilir.

İstasyonun adını görmek için fareyi noktanın üzerinde gezdirin.

Sonrasında hava gözlem ve tahminlerini görmek için tıklayın.

Haritayı değiştirmek için: yaklaştırmak için siyah artı işaretli yeşil düğmeye ve uzaklaştırmak için de eksi işaretli düğmeye hızla tıklayın; bitişik haritalar için yeşil okları kullanın.


METAR-TAF: